Time;durP1;ratioP1;P1;durP2;ratioP2;P2;SDS_P1;SDS_P2;PMS_P1;PMS_P2;Temp;Humidity;BMP_temperature;BMP_pressure;BME280_temperature;BME280_humidity;BME280_pressure;Samples;Min_cycle;Max_cycle;Signal;HPM_P1;HPM_P2
2022/10/31 00:01:41;;;;;;;0.85;0.80;;;;;;;16.42;66.38;101504.94;5111761;28;20036;-87
2022/10/31 00:04:12;;;;;;;1.02;0.80;;;;;;;16.43;66.55;101505.81;5101623;29;20111;-87
2022/10/31 00:06:43;;;;;;;2.22;0.73;;;;;;;16.42;67.26;101507.59;5131313;28;20716;-85
2022/10/31 00:09:13;;;;;;;1.75;0.80;;;;;;;16.43;67.52;101508.44;5139017;28;20028;-86
2022/10/31 00:11:44;;;;;;;1.15;1.08;;;;;;;16.43;67.42;101516.41;5121878;28;20158;-86
2022/10/31 00:14:14;;;;;;;1.73;1.58;;;;;;;16.36;67.09;101505.19;5122612;28;20064;-87
2022/10/31 00:16:48;;;;;;;3.30;1.85;;;;;;;16.33;67.20;101498.22;5092005;28;20050;-86
2022/10/31 00:19:19;;;;;;;8.77;3.28;;;;;;;16.30;67.08;101490.41;5137902;28;20031;-87
2022/10/31 00:21:51;;;;;;;11.50;1.33;;;;;;;16.28;67.23;101501.97;5104445;29;20038;-87
2022/10/31 00:24:22;;;;;;;0.88;0.88;;;;;;;16.28;67.18;101508.13;5121843;28;20071;-86
2022/10/31 00:26:52;;;;;;;1.58;1.00;;;;;;;16.28;66.90;101510.78;5118009;28;20411;-85
2022/10/31 00:29:23;;;;;;;1.30;1.20;;;;;;;16.21;67.23;101496.91;5118321;28;20055;-86
2022/10/31 00:31:54;;;;;;;1.95;1.33;;;;;;;16.23;67.15;101498.63;5105448;28;20038;-84
2022/10/31 00:34:24;;;;;;;2.03;1.38;;;;;;;16.30;66.85;101514.25;5110835;29;20031;-86
2022/10/31 00:36:55;;;;;;;1.13;1.13;;;;;;;16.23;67.25;101518.03;5122319;28;20575;-86
2022/10/31 00:39:26;;;;;;;1.65;1.55;;;;;;;16.21;66.93;101519.88;5124495;28;20031;-88
2022/10/31 00:41:56;;;;;;;1.63;1.52;;;;;;;16.20;67.08;101531.38;5138791;28;20054;-87
2022/10/31 00:44:27;;;;;;;3.63;2.33;;;;;;;16.15;67.30;101526.28;5146266;28;20135;-87
2022/10/31 00:46:57;;;;;;;2.08;1.45;;;;;;;16.14;67.06;101524.53;5119005;28;20151;-85
2022/10/31 00:49:28;;;;;;;0.93;0.93;;;;;;;16.18;66.94;101527.94;5107605;29;20212;-86
2022/10/31 00:51:59;;;;;;;0.52;0.47;;;;;;;16.12;67.24;101522.88;5117640;28;20464;-86
2022/10/31 00:54:30;;;;;;;0.60;0.60;;;;;;;16.15;67.19;101526.28;5121898;28;20381;-85
2022/10/31 00:57:01;;;;;;;1.58;1.17;;;;;;;16.12;67.68;101522.88;5116006;28;20070;-85
2022/10/31 00:59:32;;;;;;;3.95;1.88;;;;;;;16.12;67.31;101517.56;5105096;28;20043;-85
2022/10/31 01:02:03;;;;;;;1.13;1.02;;;;;;;16.12;67.26;101522.88;5101270;28;20090;-84
2022/10/31 01:04:35;;;;;;;1.52;0.98;;;;;;;16.16;66.96;101519.19;5112271;29;20040;-86
2022/10/31 01:07:06;;;;;;;1.95;1.30;;;;;;;16.12;67.46;101528.16;5125499;28;20072;-86
2022/10/31 01:09:40;;;;;;;0.68;0.68;;;;;;;16.13;67.16;101519.31;5130021;28;20062;-87
2022/10/31 01:12:11;;;;;;;1.77;1.67;;;;;;;16.10;67.27;101522.94;5109120;28;20043;-87
2022/10/31 01:14:45;;;;;;;1.83;1.63;;;;;;;16.15;67.02;101520.97;5120538;29;20506;-83
2022/10/31 01:17:16;;;;;;;0.80;0.80;;;;;;;16.08;67.14;101515.94;5122924;28;20390;-84
2022/10/31 01:19:46;;;;;;;0.98;0.95;;;;;;;16.09;67.21;101510.63;5122433;28;20031;-86
2022/10/31 01:22:17;;;;;;;1.25;0.98;;;;;;;16.10;67.10;101516.75;5130569;28;20593;-86
2022/10/31 01:24:50;;;;;;;0.88;0.88;;;;;;;16.07;67.19;101504.53;5105320;29;20028;-85
2022/10/31 01:27:20;;;;;;;0.65;0.65;;;;;;;16.04;67.26;101500.22;5104563;29;20035;-84
2022/10/31 01:29:51;;;;;;;2.53;2.28;;;;;;;16.02;67.40;101495.91;5116867;28;20070;-87
2022/10/31 01:32:21;;;;;;;2.10;0.55;;;;;;;16.01;67.11;101489.72;5102879;29;20054;-86
2022/10/31 01:34:52;;;;;;;0.50;0.50;;;;;;;16.00;67.44;101488.00;5126634;28;20016;-88
2022/10/31 01:37:23;;;;;;;0.93;0.93;;;;;;;15.98;67.31;101495.16;5122884;29;20043;-85
2022/10/31 01:39:53;;;;;;;5.45;2.80;;;;;;;15.97;67.13;101488.13;5106697;28;20039;-85
2022/10/31 01:42:24;;;;;;;3.65;2.60;;;;;;;15.95;67.23;101481.16;5120430;28;20058;-87
2022/10/31 01:44:59;;;;;;;0.50;0.50;;;;;;;15.91;67.20;101483.03;5121431;29;20030;-85
2022/10/31 01:47:40;;;;;;;0.60;0.60;;;;;;;15.87;67.34;101492.88;5119696;28;20109;-86
2022/10/31 01:50:24;;;;;;;0.60;0.60;;;;;;;15.84;67.29;101489.47;5133124;28;20031;-86
2022/10/31 01:52:56;;;;;;;2.47;1.65;;;;;;;15.83;67.46;101482.44;5134758;28;20048;-86
2022/10/31 01:55:34;;;;;;;0.82;0.82;;;;;;;15.78;67.48;101479.97;5124966;28;20028;-86
2022/10/31 01:58:11;;;;;;;0.90;0.77;;;;;;;15.76;67.68;101479.16;5107015;29;20039;-86
2022/10/31 02:00:46;;;;;;;3.05;1.92;;;;;;;15.77;67.53;101480.91;5125139;28;20044;-84
2022/10/31 02:03:20;;;;;;;3.75;1.75;;;;;;;15.76;67.77;101488.88;5109597;28;20348;-86
2022/10/31 02:05:54;;;;;;;0.73;0.73;;;;;;;15.74;67.85;101487.13;5088082;29;20505;-86
2022/10/31 02:08:28;;;;;;;1.33;1.23;;;;;;;15.74;67.42;101481.84;5118377;28;20059;-85
2022/10/31 02:11:01;;;;;;;1.23;1.13;;;;;;;15.69;67.65;101480.31;5117466;29;20390;-86
2022/10/31 02:13:33;;;;;;;;;;;;;;;15.69;67.42;101486.47;5073204;29;20043;-84
2022/10/31 02:16:04;;;;;;;3.90;1.67;;;;;;;15.63;67.99;101485.81;5106391;29;20409;-87
2022/10/31 02:18:35;;;;;;;0.85;0.85;;;;;;;15.58;67.94;101496.56;5082555;28;20062;-86
2022/10/31 02:21:19;;;;;;;0.68;0.68;;;;;;;15.60;67.73;101497.38;5134464;28;20046;-87
2022/10/31 02:24:08;;;;;;;0.95;0.95;;;;;;;15.59;67.50;101493.00;5105947;29;20106;-86
2022/10/31 02:26:57;;;;;;;0.77;0.73;;;;;;;15.57;67.72;101495.69;5114403;28;20059;-86
2022/10/31 02:29:40;;;;;;;1.35;0.73;;;;;;;15.57;67.70;101508.06;5123779;28;20027;-86
2022/10/31 02:32:25;;;;;;;0.80;0.80;;;;;;;15.51;67.72;101501.22;5100446;28;20058;-86
2022/10/31 02:35:16;;;;;;;3.05;2.13;;;;;;;15.49;67.78;101502.19;5121937;28;20032;-86
2022/10/31 02:37:53;;;;;;;1.52;1.42;;;;;;;15.43;68.08;101498.81;5102998;29;20036;-85
2022/10/31 02:40:30;;;;;;;0.98;0.95;;;;;;;15.46;67.54;101492.56;5103116;29;20044;-84
2022/10/31 02:43:19;;;;;;;0.90;0.90;;;;;;;15.46;67.53;101486.44;5129237;28;20059;-85
2022/10/31 02:45:58;;;;;;;0.88;0.80;;;;;;;15.46;67.41;101481.97;5118972;28;20065;-86
2022/10/31 02:48:35;;;;;;;9.75;3.97;;;;;;;15.43;67.57;101485.59;5130705;28;20047;-88
2022/10/31 02:51:08;;;;;;;1.50;1.35;;;;;;;15.37;67.94;101487.63;5118024;29;20028;-85
2022/10/31 02:53:38;;;;;;;;;;;;;;;15.34;68.08;101488.56;5121102;28;20062;-83
2022/10/31 02:56:16;;;;;;;0.60;0.55;;;;;;;15.37;67.47;101498.19;5122432;29;19911;-87
2022/10/31 02:58:49;;;;;;;2.90;2.25;;;;;;;15.35;67.75;101490.28;5094794;28;20799;-86
2022/10/31 03:01:39;;;;;;;2.25;1.58;;;;;;;15.29;68.35;101497.59;5107832;29;20533;-85
2022/10/31 03:04:16;;;;;;;3.88;2.05;;;;;;;15.31;67.83;101498.38;5119692;28;20349;-85
2022/10/31 03:06:52;;;;;;;0.82;0.82;;;;;;;15.33;67.54;101499.22;5113337;28;20700;-87
2022/10/31 03:09:44;;;;;;;1.55;1.40;;;;;;;15.29;67.75;101495.81;5118913;28;20028;-85
2022/10/31 03:12:30;;;;;;;1.25;1.20;;;;;;;15.25;67.61;101494.16;5094176;29;20112;-86
2022/10/31 03:15:12;;;;;;;1.17;1.08;;;;;;;15.27;67.46;101487.06;5118250;28;20052;-87
2022/10/31 03:17:52;;;;;;;2.78;1.63;;;;;;;15.18;67.98;101487.38;5094551;29;20095;-87
2022/10/31 03:20:30;;;;;;;2.22;1.35;;;;;;;15.20;67.63;101482.91;5094343;28;20036;-85
2022/10/31 03:23:02;;;;;;;0.77;0.77;;;;;;;15.16;68.18;101482.16;5117543;28;20040;-86
2022/10/31 03:25:36;;;;;;;1.48;1.38;;;;;;;15.21;67.77;101485.47;5089629;29;20044;-86
2022/10/31 03:28:09;;;;;;;2.00;1.90;;;;;;;15.21;67.43;101487.28;5100980;29;20080;-86
2022/10/31 03:30:45;;;;;;;3.70;1.20;;;;;;;15.17;67.54;101485.63;5102147;29;20052;-85
2022/10/31 03:33:23;;;;;;;;;;;;;;;15.15;67.27;101492.78;5070706;29;20048;-85
2022/10/31 03:35:57;;;;;;;0.73;0.65;;;;;;;15.14;67.57;101485.75;5102470;29;19918;-86
2022/10/31 03:38:29;;;;;;;1.23;1.20;;;;;;;15.10;67.96;101480.56;5098439;29;20054;-86
2022/10/31 03:41:03;;;;;;;4.75;2.42;;;;;;;15.08;67.31;101482.41;5067553;29;20046;-84
2022/10/31 03:43:52;;;;;;;0.75;0.75;;;;;;;15.01;67.62;101474.75;5063767;29;20032;-85
2022/10/31 03:46:23;;;;;;;1.63;1.52;;;;;;;14.98;68.04;101475.72;5077808;29;20040;-85
2022/10/31 03:48:54;;;;;;;0.63;0.63;;;;;;;14.97;67.95;101467.81;5113807;28;20047;-84
2022/10/31 03:51:40;;;;;;;1.67;1.55;;;;;;;15.00;67.70;101460.66;5079063;29;20023;-85
2022/10/31 03:54:14;;;;;;;3.55;1.38;;;;;;;14.98;67.57;101458.97;5054843;29;20275;-85
2022/10/31 03:56:58;;;;;;;8.30;2.33;;;;;;;14.96;67.32;101464.31;5077334;28;20137;-85
2022/10/31 03:59:34;;;;;;;1.02;0.90;;;;;;;14.88;67.85;101469.84;5089380;29;20058;-84
2022/10/31 04:02:21;;;;;;;1.17;1.08;;;;;;;14.89;67.74;101465.44;5084490;28;20210;-85
2022/10/31 04:04:59;;;;;;;3.25;1.98;;;;;;;14.87;68.15;101483.13;5098553;29;20119;-85
2022/10/31 04:07:43;;;;;;;9.55;3.13;;;;;;;14.79;67.81;101486.03;5070945;28;20522;-84
2022/10/31 04:10:22;;;;;;;1.35;1.27;;;;;;;14.76;68.00;101486.13;5085159;29;20483;-84
2022/10/31 04:13:05;;;;;;;0.95;0.93;;;;;;;14.76;67.77;101480.84;5065751;28;20048;-85
2022/10/31 04:15:38;;;;;;;2.80;1.23;;;;;;;14.75;67.77;101477.31;5082370;29;20039;-85
2022/10/31 04:18:08;;;;;;;1.63;1.52;;;;;;;14.72;68.32;101480.06;5081770;29;20040;-85
2022/10/31 04:20:41;;;;;;;2.08;1.88;;;;;;;14.88;67.93;101475.13;5051168;29;20048;-84
2022/10/31 04:23:24;;;;;;;3.67;2.80;;;;;;;14.76;67.75;101478.19;5081514;29;20331;-84
2022/10/31 04:25:54;;;;;;;1.00;1.00;;;;;;;14.67;67.81;101481.13;5071589;29;20356;-85
2022/10/31 04:28:25;;;;;;;1.35;1.25;;;;;;;14.66;67.65;101474.09;5093825;29;20059;-84
2022/10/31 04:30:56;;;;;;;0.80;0.80;;;;;;;14.61;67.77;101463.66;5086724;29;20488;-84
2022/10/31 04:33:26;;;;;;;1.30;1.10;;;;;;;14.58;68.07;101456.72;5097235;29;20032;-85
2022/10/31 04:35:57;;;;;;;0.90;0.88;;;;;;;14.55;67.90;101462.06;5102843;29;20032;-83
2022/10/31 04:38:27;;;;;;;1.40;1.10;;;;;;;14.57;67.75;101462.06;5099245;29;20039;-84
2022/10/31 04:40:58;;;;;;;1.27;1.17;;;;;;;14.58;67.54;101466.44;5112995;28;20032;-85
2022/10/31 04:43:29;;;;;;;1.17;0.95;;;;;;;14.54;67.74;101472.69;5097800;29;20036;-84
2022/10/31 04:46:00;;;;;;;3.17;1.75;;;;;;;14.51;68.07;101470.16;5116120;29;20032;-84
2022/10/31 04:48:30;;;;;;;1.50;1.40;;;;;;;14.51;67.73;101468.38;5113574;28;20036;-84
2022/10/31 04:51:01;;;;;;;1.45;1.35;;;;;;;14.46;68.24;101459.75;5119911;28;20028;-84
2022/10/31 04:53:32;;;;;;;0.90;0.90;;;;;;;14.49;68.06;101457.00;5136911;28;20106;-83
2022/10/31 04:56:03;;;;;;;0.40;0.40;;;;;;;14.48;68.25;101453.50;5120444;28;20032;-85
2022/10/31 04:58:34;;;;;;;0.93;0.93;;;;;;;14.44;68.16;101451.88;5103430;29;20549;-85
2022/10/31 05:01:04;;;;;;;0.55;0.55;;;;;;;14.43;67.94;101444.84;5118764;28;20051;-84
2022/10/31 05:03:35;;;;;;;1.63;1.52;;;;;;;14.43;67.84;101441.38;5100636;28;20050;-84
2022/10/31 05:06:06;;;;;;;7.68;1.73;;;;;;;14.43;67.95;101441.38;5119987;28;20038;-84
2022/10/31 05:08:37;;;;;;;0.88;0.63;;;;;;;14.38;68.33;101444.16;5122873;28;20059;-84
2022/10/31 05:11:08;;;;;;;1.38;1.27;;;;;;;14.40;67.80;101442.34;5131539;28;20039;-84
2022/10/31 05:13:38;;;;;;;15.57;2.10;;;;;;;14.38;67.92;101444.16;5099252;29;20073;-85
2022/10/31 05:16:09;;;;;;;0.77;0.77;;;;;;;14.35;68.20;101451.31;5114602;29;20036;-84
2022/10/31 05:18:39;;;;;;;2.05;1.52;;;;;;;14.32;68.11;101455.75;5114714;28;20036;-83
2022/10/31 05:21:10;;;;;;;1.10;1.10;;;;;;;14.30;68.45;101452.28;5101434;28;20028;-85
2022/10/31 05:23:40;;;;;;;2.00;1.23;;;;;;;14.29;68.16;101445.31;5099671;28;20162;-85
2022/10/31 05:26:11;;;;;;;4.03;2.25;;;;;;;14.33;67.72;101444.28;5103303;29;20028;-83
2022/10/31 05:28:42;;;;;;;1.55;1.45;;;;;;;14.31;68.19;101440.81;5100045;28;20031;-84
2022/10/31 05:31:12;;;;;;;2.28;2.08;;;;;;;14.31;68.02;101429.41;5097408;28;20027;-84
2022/10/31 05:33:43;;;;;;;0.65;0.65;;;;;;;14.30;67.77;101438.25;5100105;28;20047;-84
2022/10/31 05:36:13;;;;;;;0.70;0.70;;;;;;;14.23;68.35;101439.34;5118705;28;20116;-83
2022/10/31 05:38:44;;;;;;;2.95;1.77;;;;;;;14.25;68.55;101442.81;5112756;28;20399;-84
2022/10/31 05:41:14;;;;;;;0.40;0.40;;;;;;;14.17;68.95;101435.97;5113573;28;20043;-84
2022/10/31 05:43:45;;;;;;;0.90;0.90;;;;;;;14.19;68.36;101437.69;5133740;28;20599;-84
2022/10/31 05:46:16;;;;;;;2.55;2.33;;;;;;;14.21;68.32;101435.88;5099851;29;20047;-86
2022/10/31 05:48:47;;;;;;;1.60;1.48;;;;;;;14.21;68.33;101431.50;5127144;28;20074;-83
2022/10/31 05:51:17;;;;;;;0.65;0.65;;;;;;;14.24;68.17;101441.09;5084367;29;20104;-84
2022/10/31 05:53:48;;;;;;;2.00;1.63;;;;;;;14.21;68.11;101439.41;5131716;28;20099;-82
2022/10/31 05:56:19;;;;;;;2.92;0.73;;;;;;;14.16;68.57;101434.28;5126536;29;20289;-86
2022/10/31 05:58:49;;;;;;;1.58;1.40;;;;;;;14.15;68.46;101427.25;5115984;28;20052;-84
2022/10/31 06:01:20;;;;;;;0.63;0.63;;;;;;;14.16;68.52;101430.75;5104213;29;20036;-84
2022/10/31 06:03:51;;;;;;;3.50;2.95;;;;;;;14.16;68.36;101425.47;5137019;28;20043;-84
2022/10/31 06:06:22;;;;;;;0.40;0.40;;;;;;;14.12;68.77;101429.13;5105890;29;20032;-83
2022/10/31 06:08:52;;;;;;;1.17;0.85;;;;;;;14.09;68.49;101424.78;5101868;29;20050;-85
2022/10/31 06:11:23;;;;;;;1.40;1.10;;;;;;;14.12;68.57;101426.50;5137495;28;20049;-82
2022/10/31 06:13:54;;;;;;;1.25;1.15;;;;;;;14.10;68.60;101429.16;5143854;28;20024;-83
2022/10/31 06:16:24;;;;;;;9.95;1.63;;;;;;;14.09;68.49;101419.50;5135799;28;20035;-83
2022/10/31 06:18:55;;;;;;;1.00;0.90;;;;;;;14.11;68.66;101419.47;5115702;28;20040;-84
2022/10/31 06:21:26;;;;;;;1.33;1.23;;;;;;;14.09;68.72;101418.66;5106312;28;20040;-84
2022/10/31 06:23:57;;;;;;;1.05;1.02;;;;;;;14.08;68.44;101422.19;5131327;28;20052;-83
2022/10/31 06:26:27;;;;;;;1.80;1.67;;;;;;;14.09;68.33;101419.50;5130101;28;20028;-83
2022/10/31 06:28:58;;;;;;;1.10;1.05;;;;;;;14.09;68.29;101427.41;5111562;28;20111;-85
2022/10/31 06:31:28;;;;;;;1.08;1.02;;;;;;;14.07;68.55;101418.72;5113451;28;20026;-83
2022/10/31 06:33:59;;;;;;;0.93;0.88;;;;;;;13.99;69.16;101431.28;5116040;28;20080;-82
2022/10/31 06:36:29;;;;;;;0.68;0.68;;;;;;;13.99;68.87;101433.91;5071512;29;20047;-85
2022/10/31 06:39:00;;;;;;;1.60;1.50;;;;;;;14.01;68.60;101419.75;5094395;29;20044;-86
2022/10/31 06:41:31;;;;;;;1.65;1.55;;;;;;;14.00;68.72;101419.81;5117335;29;20062;-85
2022/10/31 06:44:19;;;;;;;1.67;1.58;;;;;;;14.03;68.22;101424.97;5102189;29;20070;-86
2022/10/31 06:46:50;;;;;;;0.98;0.98;;;;;;;13.95;68.72;101417.31;5118893;29;20510;-83
2022/10/31 06:49:23;;;;;;;1.02;0.85;;;;;;;13.96;68.87;101402.34;5094798;29;20043;-85
2022/10/31 06:51:54;;;;;;;2.08;1.70;;;;;;;13.93;68.88;101410.31;5101722;28;20450;-84
2022/10/31 06:54:28;;;;;;;5.90;2.00;;;;;;;13.90;69.00;101416.56;5138591;28;20029;-84
2022/10/31 06:56:58;;;;;;;;;;;;;;;13.91;68.78;101428.84;5119233;28;20832;-83
2022/10/31 06:59:29;;;;;;;0.75;0.75;;;;;;;13.89;69.04;101425.38;5123310;28;19922;-85
2022/10/31 07:01:59;;;;;;;1.17;1.05;;;;;;;13.86;69.13;101430.78;5118104;28;20050;-82
2022/10/31 07:04:30;;;;;;;0.88;0.73;;;;;;;13.83;69.18;101431.72;5136601;28;20312;-83
2022/10/31 07:07:00;;;;;;;4.90;3.13;;;;;;;13.84;69.24;101437.84;5094287;28;20051;-82
2022/10/31 07:09:31;;;;;;;0.80;0.80;;;;;;;13.82;69.25;101443.19;5119790;28;20070;-84
2022/10/31 07:12:02;;;;;;;1.58;1.17;;;;;;;13.85;69.11;101445.72;5134346;28;20040;-83
2022/10/31 07:14:32;;;;;;;1.40;1.35;;;;;;;13.82;69.46;101440.56;5094409;29;20095;-83
2022/10/31 07:17:03;;;;;;;1.60;1.50;;;;;;;13.83;69.31;101436.13;5118314;28;20063;-83
2022/10/31 07:19:34;;;;;;;4.22;2.20;;;;;;;13.85;69.07;101439.59;5122645;28;20036;-84
2022/10/31 07:22:04;;;;;;;12.90;2.28;;;;;;;13.83;69.54;101439.66;5100852;28;20059;-85
2022/10/31 07:24:35;;;;;;;14.60;4.82;;;;;;;13.88;69.37;101441.28;5106514;29;20530;-84
2022/10/31 07:27:09;;;;;;;1.08;0.95;;;;;;;13.90;69.17;101445.59;5114474;28;20044;-86
2022/10/31 07:29:39;;;;;;;1.10;1.02;;;;;;;13.89;69.32;101451.75;5103727;28;20071;-86
2022/10/31 07:32:10;;;;;;;2.47;1.92;;;;;;;13.98;69.05;101461.19;5081602;28;20048;-84
2022/10/31 07:34:43;;;;;;;3.45;2.05;;;;;;;13.93;69.80;101457.81;5121981;29;20060;-84
2022/10/31 07:37:16;;;;;;;0.88;0.88;;;;;;;13.88;69.82;101454.47;5102838;28;20039;-85
2022/10/31 07:39:47;;;;;;;1.67;0.90;;;;;;;13.90;69.50;101455.28;5089135;29;20046;-86
2022/10/31 07:42:17;;;;;;;0.95;0.93;;;;;;;13.93;69.29;101463.97;5121919;28;20103;-84
2022/10/31 07:44:48;;;;;;;1.75;1.50;;;;;;;13.94;69.19;101449.88;5122260;28;20047;-85
2022/10/31 07:47:18;;;;;;;2.08;1.48;;;;;;;13.97;69.18;101454.19;5076144;29;20475;-84
2022/10/31 07:49:49;;;;;;;1.58;1.48;;;;;;;13.96;69.02;101447.19;5107113;29;20043;-84
2022/10/31 07:52:19;;;;;;;8.98;1.65;;;;;;;13.95;69.34;101446.34;5137195;28;20050;-84
2022/10/31 07:54:50;;;;;;;1.90;1.80;;;;;;;13.96;69.53;101444.53;5108790;29;20032;-86
2022/10/31 07:57:21;;;;;;;3.60;1.27;;;;;;;13.97;69.63;101446.28;5120674;28;20038;-83
2022/10/31 07:59:52;;;;;;;1.92;1.42;;;;;;;13.98;69.53;101451.50;5110044;28;20084;-83
2022/10/31 08:02:24;;;;;;;1.25;1.20;;;;;;;13.98;69.82;101440.09;5106545;29;20277;-83
2022/10/31 08:04:54;;;;;;;2.20;1.63;;;;;;;13.98;70.11;101445.38;5108322;29;20091;-83
2022/10/31 08:07:26;;;;;;;0.90;0.90;;;;;;;14.00;69.89;101440.91;5088718;29;20091;-83
2022/10/31 08:09:56;;;;;;;1.38;1.27;;;;;;;14.00;70.05;101438.28;5131654;28;20076;-83
2022/10/31 08:12:27;;;;;;;0.65;0.65;;;;;;;14.01;70.06;101439.97;5119372;28;20672;-83
2022/10/31 08:14:57;;;;;;;4.05;2.70;;;;;;;14.06;70.04;101439.84;5123330;28;20038;-82
2022/10/31 08:17:29;;;;;;;0.80;0.80;;;;;;;14.07;70.12;101445.09;5120845;28;20044;-83
2022/10/31 08:19:59;;;;;;;2.25;1.48;;;;;;;14.07;70.41;101445.09;5109593;29;20050;-83
2022/10/31 08:22:30;;;;;;;0.90;0.90;;;;;;;14.05;70.74;101440.78;5136639;28;20048;-83
2022/10/31 08:25:01;;;;;;;4.50;1.50;;;;;;;14.12;70.12;101443.19;5106625;29;20064;-83
2022/10/31 08:27:34;;;;;;;3.88;2.10;;;;;;;14.15;70.36;101440.44;5123956;29;20082;-81
2022/10/31 08:30:08;;;;;;;1.17;1.15;;;;;;;14.20;70.25;101439.44;5109677;28;20032;-82
2022/10/31 08:32:38;;;;;;;1.58;1.48;;;;;;;14.21;70.37;101441.16;5119426;28;20071;-83
2022/10/31 08:35:10;;;;;;;2.35;2.15;;;;;;;14.20;70.26;101429.75;5116464;29;20039;-82
2022/10/31 08:37:41;;;;;;;1.27;1.17;;;;;;;14.22;70.36;101438.47;5091480;28;20097;-82
2022/10/31 08:40:12;;;;;;;0.47;0.47;;;;;;;14.26;70.37;101433.94;5089238;29;20016;-82
2022/10/31 08:42:43;;;;;;;1.20;1.10;;;;;;;14.26;70.73;101431.31;5125460;28;20048;-83
2022/10/31 08:45:14;;;;;;;2.13;2.00;;;;;;;14.28;70.56;101421.59;5101671;29;20086;-84
2022/10/31 08:47:44;;;;;;;2.45;1.73;;;;;;;14.26;70.83;101423.41;5091617;29;20048;-85
2022/10/31 08:50:15;;;;;;;0.88;0.88;;;;;;;14.28;70.87;101414.53;5101248;29;20052;-85
2022/10/31 08:52:45;;;;;;;0.70;0.70;;;;;;;14.33;70.69;101411.75;5104404;28;20107;-84
2022/10/31 08:55:26;;;;;;;0.32;0.32;;;;;;;14.36;70.75;101414.28;5121346;28;20051;-83
2022/10/31 08:57:58;;;;;;;0.90;0.90;;;;;;;14.39;71.07;101411.56;5118013;28;20122;-84
2022/10/31 09:00:28;;;;;;;0.85;0.85;;;;;;;14.44;70.61;101401.69;5118279;28;20637;-86
2022/10/31 09:03:01;;;;;;;0.60;0.60;;;;;;;14.45;71.53;101402.59;5105881;28;20046;-85
2022/10/31 09:05:33;;;;;;;5.22;2.30;;;;;;;14.50;70.97;101402.44;5102921;29;20083;-84
2022/10/31 09:08:07;;;;;;;1.65;1.55;;;;;;;14.55;71.09;101401.34;5120130;28;20099;-85
2022/10/31 09:10:40;;;;;;;1.10;1.05;;;;;;;14.58;70.78;101397.75;5121842;28;20035;-84
2022/10/31 09:13:15;;;;;;;6.85;1.77;;;;;;;14.62;70.61;101402.00;5116650;28;20055;-84
2022/10/31 09:15:48;;;;;;;2.35;1.10;;;;;;;14.55;73.33;101398.69;5122727;29;20069;-84
2022/10/31 09:18:21;;;;;;;0.93;0.87;;;;;;;14.62;71.57;101400.25;5103748;29;20713;-85
2022/10/31 09:20:59;;;;;;;1.15;0.77;;;;;;;14.68;71.36;101390.41;5150322;28;20019;-85
2022/10/31 09:23:29;;;;;;;3.03;1.63;;;;;;;14.71;72.87;101379.75;5137264;28;20043;-83
2022/10/31 09:26:01;;;;;;;0.98;0.98;;;;;;;14.68;74.37;101377.22;5138697;28;20031;-84
2022/10/31 09:28:32;;;;;;;2.42;1.98;;;;;;;14.79;73.22;101372.44;5127041;28;20059;-83
2022/10/31 09:31:03;;;;;;;5.43;1.65;;;;;;;14.78;73.28;101366.28;5105882;28;20558;-85
2022/10/31 09:33:33;;;;;;;1.65;1.55;;;;;;;14.82;73.42;101360.91;5123199;28;20051;-83
2022/10/31 09:36:05;;;;;;;1.98;1.60;;;;;;;14.88;73.08;101363.31;5134699;28;20015;-84
2022/10/31 09:38:36;;;;;;;1.07;1.07;;;;;;;14.91;72.45;101361.44;5083873;29;20502;-83
2022/10/31 09:41:25;;;;;;;1.45;1.35;;;;;;;14.94;72.86;101349.88;5117917;28;20028;-83
2022/10/31 09:43:58;;;;;;;1.33;1.23;;;;;;;14.94;72.58;101350.78;5135658;28;20032;-84
2022/10/31 09:46:33;;;;;;;1.27;1.17;;;;;;;15.05;72.22;101350.38;5101722;29;20096;-84
2022/10/31 09:49:28;;;;;;;1.27;1.17;;;;;;;15.02;72.42;101347.00;5115653;28;20512;-86
2022/10/31 09:52:11;;;;;;;2.35;2.00;;;;;;;15.05;72.09;101350.38;5138623;28;20666;-83
2022/10/31 09:54:48;;;;;;;0.43;0.43;;;;;;;15.05;73.52;101342.44;5130277;28;20114;-82
2022/10/31 09:57:27;;;;;;;7.97;3.90;;;;;;;15.09;72.49;101330.84;5102059;28;20082;-83
2022/10/31 09:59:59;;;;;;;7.25;1.40;;;;;;;15.07;72.71;101332.69;5107343;29;20040;-86
2022/10/31 10:02:35;;;;;;;0.40;0.40;;;;;;;15.29;71.98;101316.03;5116601;28;20031;-85
2022/10/31 10:05:15;;;;;;;0.38;0.38;;;;;;;15.34;71.43;101323.78;5117932;29;20157;-85
2022/10/31 10:07:59;;;;;;;0.88;0.68;;;;;;;15.36;71.36;101321.97;5076534;29;20050;-84
2022/10/31 10:10:48;;;;;;;1.52;0.93;;;;;;;15.32;71.53;101318.56;5101579;28;20083;-84
2022/10/31 10:13:37;;;;;;;1.92;1.42;;;;;;;15.42;71.15;101314.63;5066282;28;20046;-85
2022/10/31 10:16:14;;;;;;;8.40;2.28;;;;;;;15.45;71.01;101313.69;5095557;29;20027;-84
2022/10/31 10:18:56;;;;;;;1.00;1.00;;;;;;;15.35;71.86;101315.78;5102074;28;20051;-85
2022/10/31 10:21:44;;;;;;;0.43;0.43;;;;;;;15.29;71.96;101305.47;5105252;29;20118;-83
2022/10/31 10:24:35;;;;;;;1.60;1.10;;;;;;;15.42;71.89;101312.00;5079213;29;20124;-83
2022/10/31 10:27:41;;;;;;;2.03;1.80;;;;;;;15.48;71.73;101304.78;5064502;28;20101;-84
2022/10/31 10:30:15;;;;;;;0.50;0.50;;;;;;;15.48;71.71;101295.03;5115252;29;20032;-84
2022/10/31 10:32:48;;;;;;;;;;;;;;;15.53;71.31;101290.44;5114018;28;20039;-84
2022/10/31 10:35:25;;;;;;;13.57;1.65;;;;;;;15.53;71.61;101281.63;5103758;28;20018;-84
2022/10/31 10:38:10;;;;;;;1.60;1.50;;;;;;;15.49;72.94;101270.31;5068662;29;20039;-83
2022/10/31 10:40:42;;;;;;;2.78;2.15;;;;;;;15.49;73.23;101266.81;5099418;29;20039;-83
2022/10/31 10:43:25;;;;;;;1.30;0.80;;;;;;;15.51;72.90;101268.47;5114282;28;20039;-84
2022/10/31 10:49:19;;;;;;;1.08;0.98;;;;;;;15.60;72.55;101292.84;5130441;28;20040;-84
2022/10/31 10:51:59;;;;;;;1.10;0.75;;;;;;;15.63;72.67;101301.53;5069965;28;20088;-85
2022/10/31 10:55:02;;;;;;;0.85;0.82;;;;;;;15.76;71.97;101299.25;5103126;29;20074;-85
2022/10/31 10:57:38;;;;;;;2.33;2.13;;;;;;;15.73;72.15;101287.03;5131124;28;20066;-84
2022/10/31 11:00:40;;;;;;;2.63;1.60;;;;;;;15.82;72.21;101283.13;5117610;29;20119;-84
2022/10/31 11:03:12;;;;;;;2.63;1.48;;;;;;;15.83;72.42;101270.75;5083794;28;20035;-83
2022/10/31 11:05:49;;;;;;;1.30;1.20;;;;;;;15.85;72.14;101263.66;5117064;29;20118;-87
2022/10/31 11:08:28;;;;;;;0.30;0.30;;;;;;;15.87;71.94;101252.06;5117542;28;20044;-84
2022/10/31 11:11:09;;;;;;;5.50;1.15;;;;;;;16.04;71.52;101248.75;5090394;29;20633;-83
2022/10/31 11:13:46;;;;;;;1.33;1.23;;;;;;;16.04;71.82;101251.41;5117379;28;20059;-84
2022/10/31 11:16:26;;;;;;;0.60;0.52;;;;;;;16.05;71.59;101253.13;5102587;29;20055;-82
2022/10/31 11:19:14;;;;;;;0.93;0.93;;;;;;;16.07;71.65;101254.84;5115435;28;20047;-82
2022/10/31 11:21:46;;;;;;;0.70;0.70;;;;;;;16.13;71.47;101262.53;5128909;28;20036;-83
2022/10/31 11:24:20;;;;;;;1.02;1.02;;;;;;;16.15;71.42;101258.03;5120533;29;20036;-82
2022/10/31 11:26:51;;;;;;;0.93;0.93;;;;;;;16.13;71.56;101251.94;5109758;28;20091;-82
2022/10/31 11:29:24;;;;;;;4.40;1.15;;;;;;;16.19;71.53;101236.66;5129802;28;20038;-83
2022/10/31 11:31:59;;;;;;;1.38;1.25;;;;;;;16.23;71.59;101218.88;5088313;28;20030;-83
2022/10/31 11:34:37;;;;;;;1.92;1.38;;;;;;;16.30;71.73;101220.31;5105618;29;20030;-82
2022/10/31 11:37:21;;;;;;;1.40;1.30;;;;;;;16.41;70.55;101217.19;5116199;28;20051;-83
2022/10/31 11:39:58;;;;;;;0.85;0.85;;;;;;;16.40;71.28;101209.31;5124688;28;20253;-83
2022/10/31 11:42:39;;;;;;;0.95;0.90;;;;;;;16.50;71.21;101197.38;5115244;28;20052;-84
2022/10/31 11:45:33;;;;;;;3.47;2.72;;;;;;;16.50;70.95;101194.72;5131502;28;20032;-83
2022/10/31 11:48:16;;;;;;;1.50;1.10;;;;;;;16.58;70.73;101183.81;5059809;29;20036;-85
2022/10/31 11:50:54;;;;;;;0.68;0.68;;;;;;;16.66;70.52;101189.63;5106388;29;20039;-83
2022/10/31 11:53:29;;;;;;;0.68;0.65;;;;;;;16.65;70.88;101178.16;5129311;28;20043;-83
2022/10/31 11:56:15;;;;;;;0.20;0.20;;;;;;;16.67;70.34;101181.59;5119899;28;20036;-87
2022/10/31 11:59:14;;;;;;;1.20;0.85;;;;;;;16.85;70.18;101173.72;5105936;29;20044;-87
2022/10/31 12:01:50;;;;;;;0.60;0.57;;;;;;;16.83;69.04;101167.63;5104270;28;20035;-85
2022/10/31 12:04:33;;;;;;;3.05;1.42;;;;;;;16.86;70.16;101154.25;5134600;28;20039;-85